createdAt,value
2022-09-06T00:01:13.869Z,56.40
2022-09-06T00:03:41.013Z,56.50
2022-09-06T00:06:13.526Z,56.40
2022-09-06T00:08:41.460Z,56.40
2022-09-06T00:11:08.875Z,56.40
2022-09-06T00:13:36.445Z,56.50
2022-09-06T00:16:12.230Z,56.40
2022-09-06T00:18:39.646Z,56.40
2022-09-06T00:21:23.676Z,56.40
2022-09-06T00:23:51.295Z,56.30
2022-09-06T00:26:18.852Z,56.30
2022-09-06T00:28:46.104Z,56.30
2022-09-06T00:31:17.161Z,56.20
2022-09-06T00:33:44.218Z,56.20
2022-09-06T00:36:12.141Z,56.10
2022-09-06T00:38:39.596Z,56.80
2022-09-06T00:41:08.282Z,56.10
2022-09-06T00:43:35.651Z,56.00
2022-09-06T00:46:04.114Z,56.00
2022-09-06T00:48:31.425Z,55.90
2022-09-06T00:51:02.101Z,55.90
2022-09-06T00:53:30.536Z,55.80
2022-09-06T00:55:57.667Z,55.70
2022-09-06T00:58:25.601Z,55.70
2022-09-06T01:00:52.784Z,55.60
2022-09-06T01:03:22.722Z,55.50
2022-09-06T01:06:09.995Z,55.50
2022-09-06T01:09:06.583Z,55.50
2022-09-06T01:11:52.132Z,55.50
2022-09-06T01:14:36.676Z,55.50
2022-09-06T01:17:11.408Z,55.50
2022-09-06T01:19:58.371Z,55.50
2022-09-06T01:22:40.615Z,55.40
2022-09-06T01:25:25.447Z,55.50
2022-09-06T01:27:58.382Z,55.40
2022-09-06T01:30:25.578Z,55.30
2022-09-06T01:33:10.125Z,55.30
2022-09-06T01:36:08.599Z,55.30
2022-09-06T01:38:35.798Z,55.20
2022-09-06T01:41:02.575Z,55.10
2022-09-06T01:43:36.292Z,55.10
2022-09-06T01:46:13.105Z,55.10
2022-09-06T01:48:48.501Z,55.00
2022-09-06T01:51:40.623Z,55.00
2022-09-06T01:54:25.603Z,54.90
2022-09-06T01:57:23.319Z,54.90
2022-09-06T02:00:09.269Z,54.90
2022-09-06T02:03:14.045Z,54.80
2022-09-06T02:05:50.267Z,54.70
2022-09-06T02:08:29.585Z,54.70
2022-09-06T02:11:01.715Z,54.70
2022-09-06T02:14:00.520Z,54.70
2022-09-06T02:16:31.397Z,54.60
2022-09-06T02:19:07.567Z,54.50
2022-09-06T02:21:40.133Z,54.60
2022-09-06T02:24:13.813Z,54.50
2022-09-06T02:26:43.612Z,54.50
2022-09-06T02:29:10.612Z,54.40
2022-09-06T02:31:55.181Z,54.40
2022-09-06T02:34:22.301Z,54.30
2022-09-06T02:36:49.572Z,54.30
2022-09-06T02:39:16.705Z,54.20
2022-09-06T02:41:46.400Z,54.90
2022-09-06T02:44:13.387Z,54.30
2022-09-06T02:46:40.507Z,54.40
2022-09-06T02:49:07.341Z,54.50
2022-09-06T02:51:39.161Z,54.50
2022-09-06T02:54:06.673Z,54.50
2022-09-06T02:56:34.450Z,54.50
2022-09-06T02:59:01.237Z,54.50
2022-09-06T03:01:28.205Z,54.50
2022-09-06T03:03:55.994Z,54.50
2022-09-06T03:06:23.272Z,54.40
2022-09-06T03:08:50.153Z,54.40
2022-09-06T03:11:16.945Z,54.30
2022-09-06T03:13:43.792Z,54.30
2022-09-06T03:16:11.916Z,54.30
2022-09-06T03:18:39.226Z,54.20
2022-09-06T03:21:06.196Z,54.20
2022-09-06T03:23:33.615Z,54.10
2022-09-06T03:26:00.387Z,54.10
2022-09-06T03:28:27.825Z,54.10
2022-09-06T03:30:54.909Z,54.00
2022-09-06T03:33:21.985Z,54.00
2022-09-06T03:35:57.778Z,54.00
2022-09-06T03:38:26.434Z,54.00
2022-09-06T03:40:54.277Z,54.00
2022-09-06T03:43:23.099Z,53.90
2022-09-06T03:45:52.775Z,53.80
2022-09-06T03:48:22.697Z,53.70
2022-09-06T03:50:53.125Z,53.70
2022-09-06T03:53:20.538Z,53.70
2022-09-06T03:55:49.399Z,53.60
2022-09-06T03:58:17.764Z,53.60
2022-09-06T04:00:45.017Z,53.50
2022-09-06T04:03:12.328Z,53.40
2022-09-06T04:05:39.271Z,53.30
2022-09-06T04:08:06.105Z,53.30
2022-09-06T04:10:33.842Z,53.30
2022-09-06T04:13:00.655Z,53.20
2022-09-06T04:15:27.428Z,53.20
2022-09-06T04:17:54.308Z,53.90
2022-09-06T04:20:21.076Z,53.10
2022-09-06T04:22:47.880Z,53.00
2022-09-06T04:25:14.693Z,53.00
2022-09-06T04:27:41.661Z,53.00
2022-09-06T04:30:08.957Z,52.90
2022-09-06T04:32:35.869Z,53.00
2022-09-06T04:35:02.996Z,52.90
2022-09-06T04:37:29.838Z,52.90
2022-09-06T04:39:56.756Z,53.00
2022-09-06T04:42:23.651Z,53.00
2022-09-06T04:44:50.547Z,53.10
2022-09-06T04:47:19.184Z,53.20
2022-09-06T04:49:48.175Z,53.30
2022-09-06T04:52:15.350Z,53.30
2022-09-06T04:54:42.197Z,53.40
2022-09-06T04:57:09.069Z,53.40
2022-09-06T04:59:36.110Z,53.40
2022-09-06T05:02:03.338Z,53.40
2022-09-06T05:04:30.207Z,53.40
2022-09-06T05:07:05.035Z,53.50
2022-09-06T05:09:32.889Z,53.50
2022-09-06T05:12:00.449Z,53.50
2022-09-06T05:14:28.889Z,53.50
2022-09-06T05:16:55.996Z,53.50
2022-09-06T05:19:23.106Z,53.50
2022-09-06T05:21:51.780Z,53.60
2022-09-06T05:24:18.807Z,53.60
2022-09-06T05:26:45.595Z,53.70
2022-09-06T05:29:12.619Z,53.70
2022-09-06T05:31:39.574Z,53.80
2022-09-06T05:34:06.384Z,53.90
2022-09-06T05:36:33.533Z,53.90
2022-09-06T05:39:00.410Z,53.90
2022-09-06T05:41:27.665Z,54.00
2022-09-06T05:43:54.704Z,54.00
2022-09-06T05:46:21.966Z,54.10
2022-09-06T05:48:53.481Z,54.10
2022-09-06T05:51:20.648Z,54.10
2022-09-06T05:53:47.472Z,54.10
2022-09-06T05:56:14.723Z,54.30
2022-09-06T05:58:41.644Z,54.30
2022-09-06T06:01:26.553Z,54.30
2022-09-06T06:03:59.315Z,54.40
2022-09-06T06:06:28.339Z,54.60
2022-09-06T06:08:55.133Z,54.70
2022-09-06T06:11:23.002Z,54.80
2022-09-06T06:13:50.800Z,54.90
2022-09-06T06:16:19.786Z,55.00
2022-09-06T06:18:51.714Z,55.10
2022-09-06T06:21:27.335Z,55.20
2022-09-06T06:23:56.709Z,55.40
2022-09-06T06:26:24.008Z,55.40
2022-09-06T06:28:51.577Z,55.60
2022-09-06T06:31:19.477Z,55.70
2022-09-06T06:33:46.419Z,55.70
2022-09-06T06:36:16.142Z,55.90
2022-09-06T06:38:44.480Z,56.00
2022-09-06T06:41:13.802Z,56.10
2022-09-06T06:43:41.019Z,56.30
2022-09-06T06:46:11.202Z,56.30
2022-09-06T06:48:41.816Z,56.40
2022-09-06T06:51:09.888Z,56.50
2022-09-06T06:53:36.933Z,56.50
2022-09-06T06:56:31.096Z,56.60
2022-09-06T06:58:59.850Z,56.80
2022-09-06T07:01:28.723Z,56.90
2022-09-06T07:03:56.086Z,57.00
2022-09-06T07:09:11.031Z,57.20
2022-09-06T07:11:38.355Z,57.30
2022-09-06T07:14:05.125Z,57.20
2022-09-06T07:16:32.033Z,57.30
2022-09-06T07:18:58.902Z,57.30
2022-09-06T07:26:38.511Z,57.40
2022-09-06T07:29:06.341Z,57.40
2022-09-06T07:34:21.977Z,57.50
2022-09-06T07:36:51.594Z,57.60
2022-09-06T07:39:18.441Z,57.60
2022-09-06T07:41:45.216Z,57.80
2022-09-06T07:44:11.971Z,57.90
2022-09-06T07:46:39.345Z,58.00
2022-09-06T07:49:07.224Z,58.10
2022-09-06T07:51:34.153Z,58.20
2022-09-06T07:56:47.981Z,58.30
2022-09-06T07:59:14.966Z,58.30
2022-09-06T08:01:42.201Z,58.20
2022-09-06T08:04:13.939Z,58.30
2022-09-06T08:09:39.091Z,58.40
2022-09-06T08:12:09.512Z,58.50
2022-09-06T08:14:36.384Z,58.60
2022-09-06T08:17:04.629Z,58.70
2022-09-06T08:19:31.772Z,58.60
2022-09-06T08:21:59.255Z,58.70
2022-09-06T08:24:26.356Z,58.80
2022-09-06T08:26:53.503Z,58.70
2022-09-06T08:29:21.040Z,58.70
2022-09-06T08:31:49.247Z,58.70
2022-09-06T08:34:16.451Z,58.90
2022-09-06T08:36:45.375Z,58.80
2022-09-06T08:39:12.847Z,58.90
2022-09-06T08:41:51.529Z,58.90
2022-09-06T08:44:57.003Z,58.80
2022-09-06T08:47:25.167Z,58.80
2022-09-06T08:49:56.931Z,58.70
2022-09-06T08:53:13.162Z,58.60
2022-09-06T08:56:10.870Z,58.50
2022-09-06T08:59:08.025Z,58.40
2022-09-06T09:01:47.266Z,58.30
2022-09-06T09:04:20.301Z,58.20
2022-09-06T09:06:52.562Z,58.20
2022-09-06T09:09:20.025Z,58.10
2022-09-06T09:11:53.462Z,58.10
2022-09-06T09:14:22.754Z,58.00
2022-09-06T09:17:06.167Z,57.90
2022-09-06T09:19:36.665Z,58.00
2022-09-06T09:22:04.123Z,57.90
2022-09-06T09:24:32.362Z,58.00
2022-09-06T09:27:13.796Z,57.80
2022-09-06T09:32:46.499Z,57.70
2022-09-06T09:35:19.208Z,57.60
2022-09-06T09:37:47.651Z,57.60
2022-09-06T09:40:33.382Z,57.60
2022-09-06T09:43:22.744Z,57.60
2022-09-06T09:46:10.759Z,57.50
2022-09-06T09:48:38.263Z,57.50
2022-09-06T09:51:27.695Z,57.40
2022-09-06T09:53:57.605Z,57.40
2022-09-06T09:56:39.535Z,57.40
2022-09-06T09:59:22.609Z,57.30
2022-09-06T10:01:51.929Z,57.30
2022-09-06T10:07:20.533Z,57.30
2022-09-06T10:09:50.091Z,57.20
2022-09-06T10:12:19.528Z,57.20
2022-09-06T10:14:49.012Z,57.20
2022-09-06T10:17:44.496Z,57.30
2022-09-06T10:20:12.705Z,57.20
2022-09-06T10:23:04.970Z,57.20
2022-09-06T10:25:45.064Z,57.20
2022-09-06T10:28:23.723Z,57.20
2022-09-06T10:31:05.722Z,57.10
2022-09-06T10:34:04.705Z,57.10
2022-09-06T10:36:35.981Z,57.10
2022-09-06T10:39:09.351Z,57.20
2022-09-06T10:41:55.820Z,57.20
2022-09-06T10:44:35.716Z,57.30
2022-09-06T10:47:14.294Z,57.30
2022-09-06T10:49:55.176Z,57.30
2022-09-06T10:52:28.802Z,57.30
2022-09-06T10:55:03.961Z,57.40
2022-09-06T11:00:47.348Z,57.50
2022-09-06T11:06:12.858Z,57.60
2022-09-06T11:08:57.799Z,57.50
2022-09-06T11:11:44.392Z,57.50
2022-09-06T11:14:13.982Z,57.50
2022-09-06T11:16:48.819Z,57.50
2022-09-06T11:19:25.059Z,57.50
2022-09-06T11:22:06.661Z,57.50
2022-09-06T11:25:02.170Z,57.50
2022-09-06T11:27:37.849Z,57.50
2022-09-06T11:30:06.803Z,57.50
2022-09-06T11:32:48.781Z,57.50
2022-09-06T11:35:32.184Z,57.50
2022-09-06T11:38:08.003Z,57.50
2022-09-06T11:40:41.532Z,57.50
2022-09-06T11:43:15.342Z,57.40
2022-09-06T11:45:45.684Z,57.40
2022-09-06T11:48:58.950Z,57.30
2022-09-06T11:51:51.912Z,57.40
2022-09-06T11:54:18.676Z,57.30
2022-09-06T11:56:48.440Z,57.10
2022-09-06T11:59:21.499Z,57.00
2022-09-06T12:02:06.975Z,57.00
2022-09-06T12:05:00.514Z,57.00
2022-09-06T12:07:32.441Z,57.10
2022-09-06T12:10:02.808Z,57.20
2022-09-06T12:12:40.666Z,57.20
2022-09-06T12:15:30.528Z,57.10
2022-09-06T12:17:59.466Z,57.10
2022-09-06T12:20:48.077Z,57.40
2022-09-06T12:23:53.141Z,57.10
2022-09-06T12:26:55.322Z,57.10
2022-09-06T12:29:27.485Z,57.10
2022-09-06T12:31:57.679Z,57.10
2022-09-06T12:34:28.570Z,57.10
2022-09-06T12:37:02.175Z,57.10
2022-09-06T12:39:29.190Z,57.20
2022-09-06T12:42:01.025Z,57.20
2022-09-06T12:44:37.348Z,57.20
2022-09-06T12:47:32.579Z,57.20
2022-09-06T12:50:18.291Z,57.30
2022-09-06T12:52:51.223Z,57.30
2022-09-06T12:55:32.475Z,57.30
2022-09-06T12:58:05.680Z,57.30
2022-09-06T13:00:51.434Z,57.20
2022-09-06T13:03:30.235Z,57.10
2022-09-06T13:05:59.248Z,57.10
2022-09-06T13:09:05.405Z,57.10
2022-09-06T13:11:36.781Z,57.00
2022-09-06T13:14:14.243Z,56.90
2022-09-06T13:16:48.179Z,56.90
2022-09-06T13:19:32.156Z,56.80
2022-09-06T13:21:59.896Z,56.80
2022-09-06T13:24:32.439Z,56.70
2022-09-06T13:26:59.328Z,56.80
2022-09-06T13:29:30.793Z,56.70
2022-09-06T13:32:01.057Z,56.70
2022-09-06T13:34:33.161Z,56.60
2022-09-06T13:37:09.965Z,56.60
2022-09-06T13:39:43.868Z,56.60
2022-09-06T13:42:24.699Z,56.50
2022-09-06T13:44:51.580Z,56.40
2022-09-06T13:47:18.354Z,56.40
2022-09-06T13:49:45.213Z,56.40
2022-09-06T13:52:12.113Z,56.40
2022-09-06T13:54:39.971Z,56.40
2022-09-06T13:57:06.775Z,56.50
2022-09-06T13:59:33.602Z,56.50
2022-09-06T14:02:05.081Z,56.60
2022-09-06T14:04:36.187Z,56.60
2022-09-06T14:07:03.947Z,56.60
2022-09-06T14:09:30.861Z,56.70
2022-09-06T14:11:57.885Z,56.70
2022-09-06T14:14:24.871Z,56.70
2022-09-06T14:16:52.853Z,56.60
2022-09-06T14:19:19.828Z,56.70
2022-09-06T14:21:46.594Z,56.60
2022-09-06T14:24:13.468Z,56.70
2022-09-06T14:26:40.377Z,56.60
2022-09-06T14:29:08.112Z,56.70
2022-09-06T14:31:34.961Z,56.70
2022-09-06T14:34:02.670Z,56.60
2022-09-06T14:36:31.582Z,56.60
2022-09-06T14:38:59.540Z,56.60
2022-09-06T14:41:26.874Z,56.60
2022-09-06T14:43:55.830Z,56.50
2022-09-06T14:46:23.933Z,56.50
2022-09-06T14:49:01.580Z,56.70
2022-09-06T14:51:30.262Z,56.60
2022-09-06T14:54:02.480Z,56.60
2022-09-06T14:56:30.316Z,56.70
2022-09-06T14:58:59.751Z,56.60
2022-09-06T15:01:37.179Z,56.70
2022-09-06T15:04:07.190Z,56.70
2022-09-06T15:06:36.823Z,56.70
2022-09-06T15:09:04.651Z,56.70
2022-09-06T15:11:34.522Z,56.70
2022-09-06T15:14:03.975Z,56.70
2022-09-06T15:16:31.189Z,56.70
2022-09-06T15:18:58.432Z,56.80
2022-09-06T15:21:26.430Z,56.80
2022-09-06T15:23:53.481Z,56.70
2022-09-06T15:26:21.167Z,56.60
2022-09-06T15:28:48.929Z,56.60
2022-09-06T15:31:15.902Z,56.70
2022-09-06T15:33:42.880Z,56.70
2022-09-06T15:36:10.450Z,56.70
2022-09-06T15:38:42.749Z,56.70
2022-09-06T15:41:12.665Z,56.70
2022-09-06T15:43:42.261Z,56.70
2022-09-06T15:46:09.708Z,56.80
2022-09-06T15:48:42.953Z,56.80
2022-09-06T15:51:11.029Z,56.90
2022-09-06T15:53:38.817Z,56.90
2022-09-06T15:56:07.657Z,56.80
2022-09-06T15:58:35.314Z,56.90
2022-09-06T16:01:11.639Z,56.90
2022-09-06T16:03:43.184Z,56.90
2022-09-06T16:06:28.455Z,56.90
2022-09-06T16:09:01.082Z,56.90
2022-09-06T16:11:30.115Z,56.90
2022-09-06T16:13:56.979Z,56.90
2022-09-06T16:16:24.132Z,56.80
2022-09-06T16:18:52.267Z,56.90
2022-09-06T16:21:24.978Z,56.90
2022-09-06T16:23:54.660Z,56.90
2022-09-06T16:26:23.513Z,56.90
2022-09-06T16:28:52.135Z,57.00
2022-09-06T16:31:20.025Z,57.00
2022-09-06T16:33:50.197Z,57.10
2022-09-06T16:36:18.903Z,57.00
2022-09-06T16:38:46.553Z,57.00
2022-09-06T16:41:25.280Z,57.00
2022-09-06T16:43:52.687Z,57.00
2022-09-06T16:46:21.754Z,57.00
2022-09-06T16:48:53.186Z,57.00
2022-09-06T16:51:21.914Z,57.10
2022-09-06T16:53:49.523Z,57.20
2022-09-06T16:56:19.549Z,57.30
2022-09-06T16:58:54.583Z,57.40
2022-09-06T17:01:22.379Z,57.40
2022-09-06T17:03:49.685Z,57.50
2022-09-06T17:06:17.300Z,57.50
2022-09-06T17:08:44.261Z,57.60
2022-09-06T17:11:14.768Z,57.80
2022-09-06T17:13:43.363Z,57.90
2022-09-06T17:16:29.378Z,57.90
2022-09-06T17:18:56.359Z,57.90
2022-09-06T17:21:24.554Z,58.00
2022-09-06T17:23:52.832Z,58.00
2022-09-06T17:26:21.214Z,58.10
2022-09-06T17:28:51.189Z,58.10
2022-09-06T17:31:23.670Z,58.10
2022-09-06T17:33:52.767Z,58.10
2022-09-06T17:36:25.191Z,58.20
2022-09-06T17:38:53.561Z,58.40
2022-09-06T17:41:27.964Z,58.50
2022-09-06T17:43:55.233Z,58.50
2022-09-06T17:46:28.506Z,58.60
2022-09-06T17:48:56.438Z,58.60
2022-09-06T17:51:24.486Z,58.70
2022-09-06T17:53:52.129Z,58.80
2022-09-06T17:56:20.121Z,58.90
2022-09-06T17:58:55.321Z,58.80
2022-09-06T18:01:24.153Z,58.90
2022-09-06T18:03:51.275Z,58.90
2022-09-06T18:06:22.938Z,59.00
2022-09-06T18:08:52.457Z,59.00
2022-09-06T18:11:27.049Z,59.00
2022-09-06T18:14:01.583Z,59.20
2022-09-06T18:16:29.806Z,59.30
2022-09-06T18:19:00.057Z,59.40
2022-09-06T18:21:29.027Z,59.50
2022-09-06T18:23:56.752Z,59.70
2022-09-06T18:26:24.493Z,59.80
2022-09-06T18:28:53.343Z,59.80
2022-09-06T18:31:22.522Z,59.80
2022-09-06T18:33:49.528Z,59.90
2022-09-06T18:36:17.633Z,59.80
2022-09-06T18:38:45.303Z,59.90
2022-09-06T18:41:34.386Z,59.90
2022-09-06T18:44:03.489Z,59.90
2022-09-06T18:46:32.170Z,60.00
2022-09-06T18:48:59.402Z,59.90
2022-09-06T18:51:26.834Z,60.00
2022-09-06T18:53:56.297Z,60.00
2022-09-06T18:56:23.377Z,60.00
2022-09-06T18:58:51.886Z,60.00
2022-09-06T19:01:20.853Z,60.00
2022-09-06T19:03:47.932Z,60.10
2022-09-06T19:06:17.377Z,60.10
2022-09-06T19:08:44.499Z,60.10
2022-09-06T19:11:13.925Z,60.20
2022-09-06T19:13:41.793Z,60.10
2022-09-06T19:16:10.011Z,60.20
2022-09-06T19:18:37.550Z,60.30
2022-09-06T19:21:07.087Z,60.30
2022-09-06T19:23:36.049Z,60.30
2022-09-06T19:26:11.451Z,60.40
2022-09-06T19:28:38.762Z,60.50
2022-09-06T19:31:15.788Z,60.50
2022-09-06T19:33:48.000Z,60.50
2022-09-06T19:36:15.929Z,60.50
2022-09-06T19:39:02.062Z,60.50
2022-09-06T19:41:30.736Z,60.40
2022-09-06T19:43:58.566Z,60.60
2022-09-06T19:46:26.567Z,60.50
2022-09-06T19:48:56.004Z,60.50
2022-09-06T19:51:24.216Z,60.50
2022-09-06T19:53:58.024Z,60.50
2022-09-06T19:56:30.017Z,60.40
2022-09-06T19:58:58.902Z,60.30
2022-09-06T20:01:29.345Z,60.30
2022-09-06T20:03:56.871Z,60.30
2022-09-06T20:06:23.758Z,60.20
2022-09-06T20:08:52.227Z,60.20
2022-09-06T20:11:21.027Z,60.20
2022-09-06T20:13:48.079Z,60.20
2022-09-06T20:16:15.722Z,60.20
2022-09-06T20:18:42.804Z,60.20
2022-09-06T20:21:10.761Z,60.20
2022-09-06T20:23:37.545Z,60.20
2022-09-06T20:26:11.401Z,60.20
2022-09-06T20:28:38.301Z,60.20
2022-09-06T20:31:08.418Z,60.20
2022-09-06T20:33:36.285Z,60.30
2022-09-06T20:36:05.883Z,60.20
2022-09-06T20:38:35.468Z,60.20
2022-09-06T20:41:07.244Z,60.20
2022-09-06T20:43:37.299Z,60.20
2022-09-06T20:46:06.173Z,60.10
2022-09-06T20:48:34.688Z,60.20
2022-09-06T20:51:04.205Z,60.20
2022-09-06T20:53:31.803Z,60.30
2022-09-06T20:56:05.972Z,60.30
2022-09-06T20:58:33.541Z,60.40
2022-09-06T21:01:06.416Z,61.00
2022-09-06T21:03:38.166Z,60.40
2022-09-06T21:06:06.570Z,61.10
2022-09-06T21:08:35.457Z,60.40
2022-09-06T21:11:05.394Z,60.40
2022-09-06T21:13:33.408Z,60.40
2022-09-06T21:16:00.700Z,60.30
2022-09-06T21:18:29.152Z,60.30
2022-09-06T21:20:57.867Z,60.30
2022-09-06T21:23:25.691Z,60.40
2022-09-06T21:26:00.508Z,60.40
2022-09-06T21:28:29.386Z,60.40
2022-09-06T21:31:11.913Z,60.40
2022-09-06T21:33:41.354Z,60.50
2022-09-06T21:36:14.615Z,60.50
2022-09-06T21:38:46.257Z,60.50
2022-09-06T21:41:14.614Z,60.50
2022-09-06T21:43:42.439Z,60.50
2022-09-06T21:46:15.527Z,60.40
2022-09-06T21:48:44.848Z,60.40
2022-09-06T21:51:16.398Z,60.40
2022-09-06T21:53:45.197Z,60.30
2022-09-06T21:56:12.855Z,60.30
2022-09-06T21:58:40.474Z,60.30
2022-09-06T22:01:07.992Z,60.20
2022-09-06T22:03:39.049Z,60.20
2022-09-06T22:06:14.572Z,60.90
2022-09-06T22:08:43.248Z,60.20
2022-09-06T22:11:10.198Z,60.20
2022-09-06T22:13:37.083Z,60.10
2022-09-06T22:16:07.925Z,60.10
2022-09-06T22:18:35.927Z,60.00
2022-09-06T22:21:08.968Z,60.00
2022-09-06T22:23:36.140Z,60.00
2022-09-06T22:26:12.887Z,60.00
2022-09-06T22:28:40.347Z,60.00
2022-09-06T22:31:08.272Z,59.90
2022-09-06T22:33:36.018Z,59.90
2022-09-06T22:36:03.907Z,59.90
2022-09-06T22:38:31.391Z,59.80
2022-09-06T22:40:58.419Z,59.80
2022-09-06T22:43:26.203Z,59.70
2022-09-06T22:45:53.402Z,59.70
2022-09-06T22:48:20.485Z,59.70
2022-09-06T22:50:47.280Z,59.70
2022-09-06T22:53:14.130Z,59.70
2022-09-06T22:55:47.556Z,59.70
2022-09-06T22:58:14.536Z,59.70
2022-09-06T23:00:41.392Z,59.60
2022-09-06T23:03:08.199Z,59.50
2022-09-06T23:05:36.105Z,59.60
2022-09-06T23:08:03.797Z,59.50
2022-09-06T23:10:31.229Z,59.50
2022-09-06T23:12:58.687Z,59.50
2022-09-06T23:15:25.649Z,59.40
2022-09-06T23:17:52.816Z,59.50
2022-09-06T23:20:19.673Z,59.50
2022-09-06T23:22:47.614Z,59.50
2022-09-06T23:25:14.751Z,59.60
2022-09-06T23:27:41.592Z,59.60
2022-09-06T23:30:09.776Z,59.60
2022-09-06T23:32:36.936Z,59.70
2022-09-06T23:35:04.026Z,59.60
2022-09-06T23:37:30.984Z,59.60
2022-09-06T23:39:57.806Z,59.60
2022-09-06T23:42:24.808Z,59.60
2022-09-06T23:44:57.558Z,59.60
2022-09-06T23:47:24.765Z,59.50
2022-09-06T23:49:51.851Z,59.50
2022-09-06T23:52:19.009Z,59.50
2022-09-06T23:54:45.777Z,59.40
2022-09-06T23:57:12.628Z,59.40
2022-09-06T23:59:39.425Z,59.40
